sensor_id;sensor_type;location;lat;lon;timestamp;P1;durP1;ratioP1;P2;durP2;ratioP2
23888;SDS011;12125;40.102;18.326;2023-01-19T00:01:33;109.25;;;20.55;;
23888;SDS011;12125;40.102;18.326;2023-01-19T00:04:00;105.50;;;20.33;;
23888;SDS011;12125;40.102;18.326;2023-01-19T00:06:26;109.22;;;20.23;;
23888;SDS011;12125;40.102;18.326;2023-01-19T00:08:53;110.78;;;19.27;;
23888;SDS011;12125;40.102;18.326;2023-01-19T00:11:20;96.78;;;17.92;;
23888;SDS011;12125;40.102;18.326;2023-01-19T00:13:47;92.83;;;18.57;;
23888;SDS011;12125;40.102;18.326;2023-01-19T00:16:18;101.40;;;19.83;;
23888;SDS011;12125;40.102;18.326;2023-01-19T00:18:48;101.03;;;17.95;;
23888;SDS011;12125;40.102;18.326;2023-01-19T00:21:15;107.75;;;18.58;;
23888;SDS011;12125;40.102;18.326;2023-01-19T00:23:42;93.20;;;18.17;;
23888;SDS011;12125;40.102;18.326;2023-01-19T00:26:14;96.18;;;18.52;;
23888;SDS011;12125;40.102;18.326;2023-01-19T00:28:42;91.03;;;19.33;;
23888;SDS011;12125;40.102;18.326;2023-01-19T00:41:36;105.97;;;17.95;;
23888;SDS011;12125;40.102;18.326;2023-01-19T00:44:22;113.68;;;19.52;;
23888;SDS011;12125;40.102;18.326;2023-01-19T00:46:48;108.47;;;18.00;;
23888;SDS011;12125;40.102;18.326;2023-01-19T00:49:15;88.70;;;17.13;;
23888;SDS011;12125;40.102;18.326;2023-01-19T00:51:43;82.97;;;16.33;;
23888;SDS011;12125;40.102;18.326;2023-01-19T00:54:09;87.88;;;16.30;;
23888;SDS011;12125;40.102;18.326;2023-01-19T00:56:36;90.47;;;16.20;;
23888;SDS011;12125;40.102;18.326;2023-01-19T00:59:03;92.57;;;16.20;;
23888;SDS011;12125;40.102;18.326;2023-01-19T01:01:30;88.72;;;16.35;;
23888;SDS011;12125;40.102;18.326;2023-01-19T01:03:56;82.60;;;15.90;;
23888;SDS011;12125;40.102;18.326;2023-01-19T01:06:23;80.07;;;16.42;;
23888;SDS011;12125;40.102;18.326;2023-01-19T01:08:50;86.57;;;15.00;;
23888;SDS011;12125;40.102;18.326;2023-01-19T01:11:17;98.40;;;17.30;;
23888;SDS011;12125;40.102;18.326;2023-01-19T01:13:44;81.43;;;14.45;;
23888;SDS011;12125;40.102;18.326;2023-01-19T01:16:12;88.40;;;16.75;;
23888;SDS011;12125;40.102;18.326;2023-01-19T01:18:39;105.05;;;17.58;;
23888;SDS011;12125;40.102;18.326;2023-01-19T01:21:06;97.47;;;17.38;;
23888;SDS011;12125;40.102;18.326;2023-01-19T01:23:33;92.28;;;16.85;;
23888;SDS011;12125;40.102;18.326;2023-01-19T01:26:03;92.88;;;17.80;;
23888;SDS011;12125;40.102;18.326;2023-01-19T01:35:28;99.85;;;14.85;;
23888;SDS011;12125;40.102;18.326;2023-01-19T01:37:57;72.65;;;15.07;;
23888;SDS011;12125;40.102;18.326;2023-01-19T01:40:25;81.10;;;15.88;;
23888;SDS011;12125;40.102;18.326;2023-01-19T01:42:52;85.13;;;16.02;;
23888;SDS011;12125;40.102;18.326;2023-01-19T01:45:31;86.18;;;16.88;;
23888;SDS011;12125;40.102;18.326;2023-01-19T01:48:15;90.63;;;16.40;;
23888;SDS011;12125;40.102;18.326;2023-01-19T01:50:47;88.50;;;14.88;;
23888;SDS011;12125;40.102;18.326;2023-01-19T01:53:35;81.75;;;15.48;;
23888;SDS011;12125;40.102;18.326;2023-01-19T01:56:04;80.85;;;15.02;;
23888;SDS011;12125;40.102;18.326;2023-01-19T01:58:32;91.10;;;16.17;;
23888;SDS011;12125;40.102;18.326;2023-01-19T02:00:59;73.70;;;15.80;;
23888;SDS011;12125;40.102;18.326;2023-01-19T02:03:44;65.35;;;13.20;;
23888;SDS011;12125;40.102;18.326;2023-01-19T02:06:11;95.20;;;16.15;;
23888;SDS011;12125;40.102;18.326;2023-01-19T02:11:23;85.43;;;15.98;;
23888;SDS011;12125;40.102;18.326;2023-01-19T02:14:09;73.93;;;14.70;;
23888;SDS011;12125;40.102;18.326;2023-01-19T02:27:02;81.53;;;15.23;;
23888;SDS011;12125;40.102;18.326;2023-01-19T02:29:30;91.25;;;14.88;;
23888;SDS011;12125;40.102;18.326;2023-01-19T02:31:57;75.40;;;13.43;;
23888;SDS011;12125;40.102;18.326;2023-01-19T02:34:26;75.25;;;13.80;;
23888;SDS011;12125;40.102;18.326;2023-01-19T02:37:06;72.45;;;13.75;;
23888;SDS011;12125;40.102;18.326;2023-01-19T02:39:37;85.03;;;16.35;;
23888;SDS011;12125;40.102;18.326;2023-01-19T02:42:08;84.75;;;14.45;;
23888;SDS011;12125;40.102;18.326;2023-01-19T02:44:36;79.30;;;13.63;;
23888;SDS011;12125;40.102;18.326;2023-01-19T02:47:03;74.07;;;14.48;;
23888;SDS011;12125;40.102;18.326;2023-01-19T02:49:31;97.25;;;17.27;;
23888;SDS011;12125;40.102;18.326;2023-01-19T02:51:57;70.28;;;14.73;;
23888;SDS011;12125;40.102;18.326;2023-01-19T02:54:27;88.53;;;16.92;;
23888;SDS011;12125;40.102;18.326;2023-01-19T02:57:06;80.88;;;16.52;;
23888;SDS011;12125;40.102;18.326;2023-01-19T03:02:15;96.47;;;17.10;;
23888;SDS011;12125;40.102;18.326;2023-01-19T03:15:48;76.32;;;15.18;;
23888;SDS011;12125;40.102;18.326;2023-01-19T03:18:17;74.22;;;16.58;;
23888;SDS011;12125;40.102;18.326;2023-01-19T03:20:46;78.22;;;16.25;;
23888;SDS011;12125;40.102;18.326;2023-01-19T03:23:14;70.97;;;14.60;;
23888;SDS011;12125;40.102;18.326;2023-01-19T03:25:43;90.78;;;15.48;;
23888;SDS011;12125;40.102;18.326;2023-01-19T03:28:12;81.45;;;15.20;;
23888;SDS011;12125;40.102;18.326;2023-01-19T03:30:45;73.60;;;17.25;;
23888;SDS011;12125;40.102;18.326;2023-01-19T03:33:19;83.57;;;15.18;;
23888;SDS011;12125;40.102;18.326;2023-01-19T03:35:47;81.07;;;15.90;;
23888;SDS011;12125;40.102;18.326;2023-01-19T03:38:15;66.55;;;13.50;;
23888;SDS011;12125;40.102;18.326;2023-01-19T03:40:44;75.88;;;15.80;;
23888;SDS011;12125;40.102;18.326;2023-01-19T03:43:12;77.53;;;14.93;;
23888;SDS011;12125;40.102;18.326;2023-01-19T03:45:40;85.05;;;15.13;;
23888;SDS011;12125;40.102;18.326;2023-01-19T03:48:07;84.68;;;15.23;;
23888;SDS011;12125;40.102;18.326;2023-01-19T03:50:34;85.32;;;15.48;;
23888;SDS011;12125;40.102;18.326;2023-01-19T03:53:03;83.13;;;16.63;;
23888;SDS011;12125;40.102;18.326;2023-01-19T03:55:30;93.10;;;16.95;;
23888;SDS011;12125;40.102;18.326;2023-01-19T03:57:57;86.75;;;16.38;;
23888;SDS011;12125;40.102;18.326;2023-01-19T04:00:24;83.15;;;15.38;;
23888;SDS011;12125;40.102;18.326;2023-01-19T04:02:50;105.32;;;16.55;;
23888;SDS011;12125;40.102;18.326;2023-01-19T04:05:17;118.95;;;18.77;;
23888;SDS011;12125;40.102;18.326;2023-01-19T04:07:44;95.80;;;17.02;;
23888;SDS011;12125;40.102;18.326;2023-01-19T04:10:13;74.55;;;18.15;;
23888;SDS011;12125;40.102;18.326;2023-01-19T04:12:40;84.55;;;15.40;;
23888;SDS011;12125;40.102;18.326;2023-01-19T04:15:07;72.93;;;16.55;;
23888;SDS011;12125;40.102;18.326;2023-01-19T04:17:34;80.07;;;16.60;;
23888;SDS011;12125;40.102;18.326;2023-01-19T04:20:00;88.40;;;17.33;;
23888;SDS011;12125;40.102;18.326;2023-01-19T04:22:27;94.72;;;16.63;;
23888;SDS011;12125;40.102;18.326;2023-01-19T04:24:55;92.43;;;17.95;;
23888;SDS011;12125;40.102;18.326;2023-01-19T04:27:23;86.22;;;16.85;;
23888;SDS011;12125;40.102;18.326;2023-01-19T04:29:50;115.90;;;18.85;;
23888;SDS011;12125;40.102;18.326;2023-01-19T04:32:17;101.70;;;18.83;;
23888;SDS011;12125;40.102;18.326;2023-01-19T04:34:44;95.38;;;18.25;;
23888;SDS011;12125;40.102;18.326;2023-01-19T04:37:11;90.28;;;16.92;;
23888;SDS011;12125;40.102;18.326;2023-01-19T04:39:37;93.72;;;17.88;;
23888;SDS011;12125;40.102;18.326;2023-01-19T04:42:04;90.22;;;17.10;;
23888;SDS011;12125;40.102;18.326;2023-01-19T04:44:32;96.15;;;17.67;;
23888;SDS011;12125;40.102;18.326;2023-01-19T04:46:59;89.97;;;17.10;;
23888;SDS011;12125;40.102;18.326;2023-01-19T04:49:26;100.32;;;17.33;;
23888;SDS011;12125;40.102;18.326;2023-01-19T04:51:53;91.38;;;18.27;;
23888;SDS011;12125;40.102;18.326;2023-01-19T04:54:20;96.68;;;16.17;;
23888;SDS011;12125;40.102;18.326;2023-01-19T04:56:47;72.80;;;14.65;;
23888;SDS011;12125;40.102;18.326;2023-01-19T04:59:14;100.35;;;17.63;;
23888;SDS011;12125;40.102;18.326;2023-01-19T05:01:41;72.18;;;15.32;;
23888;SDS011;12125;40.102;18.326;2023-01-19T05:04:08;72.15;;;14.70;;
23888;SDS011;12125;40.102;18.326;2023-01-19T05:06:35;72.78;;;14.10;;
23888;SDS011;12125;40.102;18.326;2023-01-19T05:09:02;98.32;;;16.05;;
23888;SDS011;12125;40.102;18.326;2023-01-19T05:11:29;90.82;;;16.45;;
23888;SDS011;12125;40.102;18.326;2023-01-19T05:13:56;94.13;;;17.92;;
23888;SDS011;12125;40.102;18.326;2023-01-19T05:16:23;90.47;;;17.08;;
23888;SDS011;12125;40.102;18.326;2023-01-19T05:18:50;87.07;;;16.95;;
23888;SDS011;12125;40.102;18.326;2023-01-19T05:21:17;98.72;;;16.88;;
23888;SDS011;12125;40.102;18.326;2023-01-19T05:23:44;79.43;;;15.75;;
23888;SDS011;12125;40.102;18.326;2023-01-19T05:26:11;90.28;;;17.00;;
23888;SDS011;12125;40.102;18.326;2023-01-19T05:28:38;89.60;;;15.98;;
23888;SDS011;12125;40.102;18.326;2023-01-19T05:31:05;105.03;;;17.83;;
23888;SDS011;12125;40.102;18.326;2023-01-19T05:33:32;87.43;;;17.80;;
23888;SDS011;12125;40.102;18.326;2023-01-19T05:35:59;115.90;;;19.83;;
23888;SDS011;12125;40.102;18.326;2023-01-19T05:38:26;91.03;;;16.20;;
23888;SDS011;12125;40.102;18.326;2023-01-19T05:40:56;91.05;;;18.05;;
23888;SDS011;12125;40.102;18.326;2023-01-19T05:43:23;110.28;;;19.52;;
23888;SDS011;12125;40.102;18.326;2023-01-19T05:52:48;80.88;;;15.98;;
23888;SDS011;12125;40.102;18.326;2023-01-19T05:55:18;101.55;;;17.98;;
23888;SDS011;12125;40.102;18.326;2023-01-19T05:57:45;107.65;;;18.70;;
23888;SDS011;12125;40.102;18.326;2023-01-19T06:00:12;101.50;;;18.63;;
23888;SDS011;12125;40.102;18.326;2023-01-19T06:02:39;88.15;;;15.07;;
23888;SDS011;12125;40.102;18.326;2023-01-19T06:05:06;130.02;;;19.88;;
23888;SDS011;12125;40.102;18.326;2023-01-19T06:07:33;100.60;;;18.80;;
23888;SDS011;12125;40.102;18.326;2023-01-19T06:10:00;117.88;;;19.13;;
23888;SDS011;12125;40.102;18.326;2023-01-19T06:12:27;102.70;;;19.98;;
23888;SDS011;12125;40.102;18.326;2023-01-19T06:14:54;99.13;;;19.67;;
23888;SDS011;12125;40.102;18.326;2023-01-19T06:17:22;82.35;;;17.10;;
23888;SDS011;12125;40.102;18.326;2023-01-19T06:19:49;107.75;;;19.67;;
23888;SDS011;12125;40.102;18.326;2023-01-19T06:22:16;109.60;;;17.92;;
23888;SDS011;12125;40.102;18.326;2023-01-19T06:24:43;80.63;;;16.52;;
23888;SDS011;12125;40.102;18.326;2023-01-19T06:27:10;97.10;;;18.75;;
23888;SDS011;12125;40.102;18.326;2023-01-19T06:29:38;91.97;;;17.10;;
23888;SDS011;12125;40.102;18.326;2023-01-19T06:32:05;105.03;;;18.42;;
23888;SDS011;12125;40.102;18.326;2023-01-19T06:34:32;92.10;;;17.42;;
23888;SDS011;12125;40.102;18.326;2023-01-19T06:36:59;87.45;;;16.23;;
23888;SDS011;12125;40.102;18.326;2023-01-19T06:39:25;98.88;;;17.02;;
23888;SDS011;12125;40.102;18.326;2023-01-19T06:42:00;89.03;;;15.65;;
23888;SDS011;12125;40.102;18.326;2023-01-19T06:44:37;76.18;;;16.15;;
23888;SDS011;12125;40.102;18.326;2023-01-19T06:47:09;84.90;;;14.90;;
23888;SDS011;12125;40.102;18.326;2023-01-19T06:49:42;77.05;;;14.40;;
23888;SDS011;12125;40.102;18.326;2023-01-19T06:55:09;66.07;;;12.98;;
23888;SDS011;12125;40.102;18.326;2023-01-19T06:57:36;76.07;;;12.02;;
23888;SDS011;12125;40.102;18.326;2023-01-19T07:00:04;57.30;;;10.85;;
23888;SDS011;12125;40.102;18.326;2023-01-19T07:02:36;58.78;;;11.13;;
23888;SDS011;12125;40.102;18.326;2023-01-19T07:05:03;53.28;;;10.60;;
23888;SDS011;12125;40.102;18.326;2023-01-19T07:07:31;42.30;;;9.93;;
23888;SDS011;12125;40.102;18.326;2023-01-19T07:09:58;43.90;;;8.30;;
23888;SDS011;12125;40.102;18.326;2023-01-19T07:12:24;50.80;;;9.18;;
23888;SDS011;12125;40.102;18.326;2023-01-19T07:14:51;34.13;;;7.63;;
23888;SDS011;12125;40.102;18.326;2023-01-19T07:17:18;34.63;;;8.00;;
23888;SDS011;12125;40.102;18.326;2023-01-19T07:19:45;39.97;;;7.85;;
23888;SDS011;12125;40.102;18.326;2023-01-19T07:22:12;29.25;;;8.02;;
23888;SDS011;12125;40.102;18.326;2023-01-19T07:24:39;31.17;;;7.20;;
23888;SDS011;12125;40.102;18.326;2023-01-19T07:27:06;30.60;;;6.85;;
23888;SDS011;12125;40.102;18.326;2023-01-19T07:29:33;25.98;;;6.47;;
23888;SDS011;12125;40.102;18.326;2023-01-19T07:32:00;33.05;;;6.85;;
23888;SDS011;12125;40.102;18.326;2023-01-19T07:34:27;21.65;;;5.45;;
23888;SDS011;12125;40.102;18.326;2023-01-19T07:36:54;28.33;;;6.28;;
23888;SDS011;12125;40.102;18.326;2023-01-19T07:39:21;18.92;;;5.55;;
23888;SDS011;12125;40.102;18.326;2023-01-19T07:41:48;21.88;;;5.65;;
23888;SDS011;12125;40.102;18.326;2023-01-19T07:44:15;24.60;;;6.07;;
23888;SDS011;12125;40.102;18.326;2023-01-19T07:46:42;25.05;;;6.68;;
23888;SDS011;12125;40.102;18.326;2023-01-19T07:49:09;24.58;;;5.93;;
23888;SDS011;12125;40.102;18.326;2023-01-19T07:51:36;27.67;;;5.93;;
23888;SDS011;12125;40.102;18.326;2023-01-19T07:54:03;20.90;;;5.28;;
23888;SDS011;12125;40.102;18.326;2023-01-19T07:56:30;23.17;;;5.88;;
23888;SDS011;12125;40.102;18.326;2023-01-19T07:58:57;26.27;;;5.97;;
23888;SDS011;12125;40.102;18.326;2023-01-19T08:01:24;22.23;;;5.85;;
23888;SDS011;12125;40.102;18.326;2023-01-19T08:03:51;25.80;;;5.10;;
23888;SDS011;12125;40.102;18.326;2023-01-19T08:06:21;22.33;;;5.50;;
23888;SDS011;12125;40.102;18.326;2023-01-19T08:08:49;29.58;;;5.95;;
23888;SDS011;12125;40.102;18.326;2023-01-19T08:11:15;23.77;;;6.07;;
23888;SDS011;12125;40.102;18.326;2023-01-19T08:13:42;26.83;;;6.10;;
23888;SDS011;12125;40.102;18.326;2023-01-19T08:16:09;30.40;;;6.53;;
23888;SDS011;12125;40.102;18.326;2023-01-19T08:18:36;31.48;;;6.30;;
23888;SDS011;12125;40.102;18.326;2023-01-19T08:21:03;29.30;;;6.32;;
23888;SDS011;12125;40.102;18.326;2023-01-19T08:23:30;30.90;;;5.22;;
23888;SDS011;12125;40.102;18.326;2023-01-19T08:25:57;26.73;;;6.25;;
23888;SDS011;12125;40.102;18.326;2023-01-19T08:28:24;27.67;;;5.93;;
23888;SDS011;12125;40.102;18.326;2023-01-19T08:30:51;31.85;;;6.03;;
23888;SDS011;12125;40.102;18.326;2023-01-19T08:33:21;36.42;;;7.00;;
23888;SDS011;12125;40.102;18.326;2023-01-19T08:35:50;23.55;;;5.80;;
23888;SDS011;12125;40.102;18.326;2023-01-19T08:38:18;24.58;;;5.28;;
23888;SDS011;12125;40.102;18.326;2023-01-19T08:40:45;25.33;;;5.45;;
23888;SDS011;12125;40.102;18.326;2023-01-19T08:43:13;25.48;;;5.40;;
23888;SDS011;12125;40.102;18.326;2023-01-19T08:45:41;27.40;;;5.88;;
23888;SDS011;12125;40.102;18.326;2023-01-19T08:48:13;23.20;;;5.82;;
23888;SDS011;12125;40.102;18.326;2023-01-19T08:50:40;22.38;;;4.82;;
23888;SDS011;12125;40.102;18.326;2023-01-19T08:53:08;30.00;;;4.95;;
23888;SDS011;12125;40.102;18.326;2023-01-19T08:55:35;22.42;;;4.75;;
23888;SDS011;12125;40.102;18.326;2023-01-19T08:58:02;25.17;;;5.25;;
23888;SDS011;12125;40.102;18.326;2023-01-19T09:00:30;15.30;;;4.40;;
23888;SDS011;12125;40.102;18.326;2023-01-19T09:02:59;23.05;;;4.97;;
23888;SDS011;12125;40.102;18.326;2023-01-19T09:05:29;20.27;;;4.82;;
23888;SDS011;12125;40.102;18.326;2023-01-19T09:08:00;19.80;;;4.30;;
23888;SDS011;12125;40.102;18.326;2023-01-19T09:10:27;23.00;;;4.13;;
23888;SDS011;12125;40.102;18.326;2023-01-19T09:13:03;14.23;;;3.60;;
23888;SDS011;12125;40.102;18.326;2023-01-19T09:15:30;11.13;;;4.05;;
23888;SDS011;12125;40.102;18.326;2023-01-19T09:18:00;18.98;;;3.85;;
23888;SDS011;12125;40.102;18.326;2023-01-19T09:20:27;23.38;;;4.22;;
23888;SDS011;12125;40.102;18.326;2023-01-19T09:22:56;19.40;;;4.45;;
23888;SDS011;12125;40.102;18.326;2023-01-19T09:25:23;18.02;;;4.18;;
23888;SDS011;12125;40.102;18.326;2023-01-19T09:27:50;12.27;;;3.55;;
23888;SDS011;12125;40.102;18.326;2023-01-19T09:30:17;18.58;;;3.92;;
23888;SDS011;12125;40.102;18.326;2023-01-19T09:32:44;14.15;;;3.90;;
23888;SDS011;12125;40.102;18.326;2023-01-19T09:35:11;18.63;;;3.72;;
23888;SDS011;12125;40.102;18.326;2023-01-19T09:37:38;18.08;;;3.83;;
23888;SDS011;12125;40.102;18.326;2023-01-19T09:40:05;10.32;;;3.38;;
23888;SDS011;12125;40.102;18.326;2023-01-19T09:45:06;15.27;;;3.78;;
23888;SDS011;12125;40.102;18.326;2023-01-19T09:47:34;22.45;;;4.28;;
23888;SDS011;12125;40.102;18.326;2023-01-19T09:50:03;15.48;;;3.35;;
23888;SDS011;12125;40.102;18.326;2023-01-19T09:52:32;15.02;;;4.05;;
23888;SDS011;12125;40.102;18.326;2023-01-19T09:55:01;13.73;;;4.20;;
23888;SDS011;12125;40.102;18.326;2023-01-19T09:57:28;15.63;;;4.00;;
23888;SDS011;12125;40.102;18.326;2023-01-19T09:59:56;12.73;;;3.50;;
23888;SDS011;12125;40.102;18.326;2023-01-19T10:04:57;13.98;;;3.10;;
23888;SDS011;12125;40.102;18.326;2023-01-19T10:12:47;16.42;;;3.45;;
23888;SDS011;12125;40.102;18.326;2023-01-19T10:29:25;15.82;;;3.80;;
23888;SDS011;12125;40.102;18.326;2023-01-19T10:32:21;15.10;;;3.85;;
23888;SDS011;12125;40.102;18.326;2023-01-19T10:34:56;21.17;;;3.75;;
23888;SDS011;12125;40.102;18.326;2023-01-19T10:37:31;14.43;;;3.45;;
23888;SDS011;12125;40.102;18.326;2023-01-19T10:42:47;22.83;;;4.07;;
23888;SDS011;12125;40.102;18.326;2023-01-19T10:45:19;19.38;;;4.00;;
23888;SDS011;12125;40.102;18.326;2023-01-19T10:47:46;14.30;;;4.25;;
23888;SDS011;12125;40.102;18.326;2023-01-19T10:50:24;13.88;;;3.45;;
23888;SDS011;12125;40.102;18.326;2023-01-19T10:52:52;14.93;;;3.60;;
23888;SDS011;12125;40.102;18.326;2023-01-19T10:55:27;13.93;;;4.10;;
23888;SDS011;12125;40.102;18.326;2023-01-19T10:57:55;12.35;;;3.75;;
23888;SDS011;12125;40.102;18.326;2023-01-19T11:00:40;10.15;;;3.17;;
23888;SDS011;12125;40.102;18.326;2023-01-19T11:05:52;13.52;;;3.60;;
23888;SDS011;12125;40.102;18.326;2023-01-19T11:08:28;14.02;;;3.35;;
23888;SDS011;12125;40.102;18.326;2023-01-19T11:11:00;15.82;;;3.22;;
23888;SDS011;12125;40.102;18.326;2023-01-19T11:13:29;20.05;;;3.33;;
23888;SDS011;12125;40.102;18.326;2023-01-19T11:15:56;20.98;;;5.40;;
23888;SDS011;12125;40.102;18.326;2023-01-19T11:18:30;13.93;;;3.95;;
23888;SDS011;12125;40.102;18.326;2023-01-19T11:20:58;13.70;;;3.67;;
23888;SDS011;12125;40.102;18.326;2023-01-19T11:23:27;12.80;;;3.75;;
23888;SDS011;12125;40.102;18.326;2023-01-19T11:25:56;17.33;;;4.03;;
23888;SDS011;12125;40.102;18.326;2023-01-19T11:28:26;17.13;;;3.97;;
23888;SDS011;12125;40.102;18.326;2023-01-19T11:30:59;14.32;;;3.67;;
23888;SDS011;12125;40.102;18.326;2023-01-19T11:36:15;14.15;;;3.33;;
23888;SDS011;12125;40.102;18.326;2023-01-19T11:38:46;18.40;;;4.10;;
23888;SDS011;12125;40.102;18.326;2023-01-19T11:43:42;12.90;;;3.92;;
23888;SDS011;12125;40.102;18.326;2023-01-19T11:46:12;21.08;;;4.43;;
23888;SDS011;12125;40.102;18.326;2023-01-19T11:48:41;15.68;;;3.80;;
23888;SDS011;12125;40.102;18.326;2023-01-19T11:51:11;15.15;;;3.90;;
23888;SDS011;12125;40.102;18.326;2023-01-19T11:53:38;10.57;;;4.00;;
23888;SDS011;12125;40.102;18.326;2023-01-19T11:56:08;14.85;;;3.90;;
23888;SDS011;12125;40.102;18.326;2023-01-19T11:58:37;11.73;;;4.07;;
23888;SDS011;12125;40.102;18.326;2023-01-19T12:01:16;12.07;;;4.13;;
23888;SDS011;12125;40.102;18.326;2023-01-19T12:06:19;12.00;;;3.38;;
23888;SDS011;12125;40.102;18.326;2023-01-19T12:08:49;15.15;;;3.88;;
23888;SDS011;12125;40.102;18.326;2023-01-19T12:11:29;8.02;;;2.90;;
23888;SDS011;12125;40.102;18.326;2023-01-19T12:13:56;10.05;;;2.85;;
23888;SDS011;12125;40.102;18.326;2023-01-19T12:16:25;9.68;;;2.88;;
23888;SDS011;12125;40.102;18.326;2023-01-19T12:18:54;7.63;;;3.05;;
23888;SDS011;12125;40.102;18.326;2023-01-19T12:21:21;6.72;;;2.72;;
23888;SDS011;12125;40.102;18.326;2023-01-19T12:26:35;8.75;;;3.35;;
23888;SDS011;12125;40.102;18.326;2023-01-19T12:29:04;16.35;;;3.20;;
23888;SDS011;12125;40.102;18.326;2023-01-19T12:31:31;12.98;;;3.28;;
23888;SDS011;12125;40.102;18.326;2023-01-19T12:36:44;8.43;;;2.50;;
23888;SDS011;12125;40.102;18.326;2023-01-19T12:39:20;14.98;;;3.03;;
23888;SDS011;12125;40.102;18.326;2023-01-19T12:41:48;8.38;;;2.60;;
23888;SDS011;12125;40.102;18.326;2023-01-19T12:44:29;4.53;;;2.10;;
23888;SDS011;12125;40.102;18.326;2023-01-19T12:46:59;7.78;;;3.13;;
23888;SDS011;12125;40.102;18.326;2023-01-19T12:54:52;6.88;;;2.63;;
23888;SDS011;12125;40.102;18.326;2023-01-19T13:00:00;4.32;;;2.10;;
23888;SDS011;12125;40.102;18.326;2023-01-19T13:02:43;6.97;;;2.58;;
23888;SDS011;12125;40.102;18.326;2023-01-19T13:05:11;5.93;;;2.67;;
23888;SDS011;12125;40.102;18.326;2023-01-19T13:13:16;7.70;;;2.85;;
23888;SDS011;12125;40.102;18.326;2023-01-19T13:15:43;8.60;;;4.03;;
23888;SDS011;12125;40.102;18.326;2023-01-19T13:18:29;9.55;;;3.20;;
23888;SDS011;12125;40.102;18.326;2023-01-19T13:20:59;6.35;;;3.15;;
23888;SDS011;12125;40.102;18.326;2023-01-19T13:23:27;11.23;;;3.88;;
23888;SDS011;12125;40.102;18.326;2023-01-19T13:25:59;9.43;;;4.07;;
23888;SDS011;12125;40.102;18.326;2023-01-19T13:30:54;11.23;;;4.65;;
23888;SDS011;12125;40.102;18.326;2023-01-19T13:33:23;7.85;;;4.38;;
23888;SDS011;12125;40.102;18.326;2023-01-19T13:35:51;9.55;;;5.53;;
23888;SDS011;12125;40.102;18.326;2023-01-19T13:38:19;10.70;;;4.85;;
23888;SDS011;12125;40.102;18.326;2023-01-19T13:40:47;10.07;;;4.68;;
23888;SDS011;12125;40.102;18.326;2023-01-19T13:43:17;5.45;;;3.78;;
23888;SDS011;12125;40.102;18.326;2023-01-19T13:45:46;7.15;;;3.45;;
23888;SDS011;12125;40.102;18.326;2023-01-19T13:48:17;8.98;;;3.75;;
23888;SDS011;12125;40.102;18.326;2023-01-19T13:50:57;16.15;;;4.72;;
23888;SDS011;12125;40.102;18.326;2023-01-19T13:53:24;7.78;;;4.13;;
23888;SDS011;12125;40.102;18.326;2023-01-19T13:58:37;5.45;;;3.30;;
23888;SDS011;12125;40.102;18.326;2023-01-19T14:01:03;14.93;;;4.10;;
23888;SDS011;12125;40.102;18.326;2023-01-19T14:03:30;9.05;;;5.10;;
23888;SDS011;12125;40.102;18.326;2023-01-19T14:05:57;10.02;;;4.55;;
23888;SDS011;12125;40.102;18.326;2023-01-19T14:08:24;16.80;;;3.88;;
23888;SDS011;12125;40.102;18.326;2023-01-19T14:13:28;6.07;;;3.10;;
23888;SDS011;12125;40.102;18.326;2023-01-19T14:15:59;10.15;;;3.35;;
23888;SDS011;12125;40.102;18.326;2023-01-19T14:18:27;5.78;;;3.03;;
23888;SDS011;12125;40.102;18.326;2023-01-19T14:21:07;6.25;;;3.28;;
23888;SDS011;12125;40.102;18.326;2023-01-19T14:23:42;9.20;;;3.28;;
23888;SDS011;12125;40.102;18.326;2023-01-19T14:28:54;4.80;;;2.08;;
23888;SDS011;12125;40.102;18.326;2023-01-19T14:31:22;3.70;;;1.85;;
23888;SDS011;12125;40.102;18.326;2023-01-19T14:33:51;7.30;;;2.25;;
23888;SDS011;12125;40.102;18.326;2023-01-19T14:36:25;4.60;;;1.80;;
23888;SDS011;12125;40.102;18.326;2023-01-19T14:38:53;5.70;;;1.77;;
23888;SDS011;12125;40.102;18.326;2023-01-19T14:41:22;2.85;;;1.77;;
23888;SDS011;12125;40.102;18.326;2023-01-19T14:43:51;3.72;;;2.15;;
23888;SDS011;12125;40.102;18.326;2023-01-19T14:46:20;6.13;;;1.98;;
23888;SDS011;12125;40.102;18.326;2023-01-19T14:48:47;5.35;;;1.90;;
23888;SDS011;12125;40.102;18.326;2023-01-19T14:51:16;6.78;;;2.30;;
23888;SDS011;12125;40.102;18.326;2023-01-19T14:53:51;5.88;;;1.90;;
23888;SDS011;12125;40.102;18.326;2023-01-19T14:56:28;4.65;;;1.90;;
23888;SDS011;12125;40.102;18.326;2023-01-19T14:58:56;2.95;;;1.98;;
23888;SDS011;12125;40.102;18.326;2023-01-19T15:01:24;4.35;;;1.95;;
23888;SDS011;12125;40.102;18.326;2023-01-19T15:03:55;8.02;;;3.22;;
23888;SDS011;12125;40.102;18.326;2023-01-19T15:06:22;11.90;;;3.72;;
23888;SDS011;12125;40.102;18.326;2023-01-19T15:08:50;8.60;;;3.50;;
23888;SDS011;12125;40.102;18.326;2023-01-19T15:11:28;3.47;;;2.88;;
23888;SDS011;12125;40.102;18.326;2023-01-19T15:13:56;3.88;;;2.40;;
23888;SDS011;12125;40.102;18.326;2023-01-19T15:16:24;5.05;;;2.53;;
23888;SDS011;12125;40.102;18.326;2023-01-19T15:18:51;6.97;;;2.70;;
23888;SDS011;12125;40.102;18.326;2023-01-19T15:21:18;4.18;;;2.42;;
23888;SDS011;12125;40.102;18.326;2023-01-19T15:23:48;3.80;;;2.00;;
23888;SDS011;12125;40.102;18.326;2023-01-19T15:26:15;5.22;;;2.38;;
23888;SDS011;12125;40.102;18.326;2023-01-19T15:28:43;2.83;;;2.15;;
23888;SDS011;12125;40.102;18.326;2023-01-19T15:31:15;6.28;;;2.90;;
23888;SDS011;12125;40.102;18.326;2023-01-19T15:33:42;3.78;;;2.10;;
23888;SDS011;12125;40.102;18.326;2023-01-19T15:36:12;5.03;;;2.47;;
23888;SDS011;12125;40.102;18.326;2023-01-19T15:38:39;5.10;;;2.33;;
23888;SDS011;12125;40.102;18.326;2023-01-19T15:41:39;4.55;;;2.35;;
23888;SDS011;12125;40.102;18.326;2023-01-19T15:43:59;4.00;;;2.70;;
23888;SDS011;12125;40.102;18.326;2023-01-19T15:46:25;7.38;;;2.63;;
23888;SDS011;12125;40.102;18.326;2023-01-19T15:48:52;2.33;;;1.80;;
23888;SDS011;12125;40.102;18.326;2023-01-19T15:51:20;3.03;;;2.20;;
23888;SDS011;12125;40.102;18.326;2023-01-19T15:53:47;4.72;;;2.42;;
23888;SDS011;12125;40.102;18.326;2023-01-19T15:56:15;6.22;;;2.45;;
23888;SDS011;12125;40.102;18.326;2023-01-19T15:58:42;6.18;;;2.20;;
23888;SDS011;12125;40.102;18.326;2023-01-19T16:01:12;2.50;;;2.03;;
23888;SDS011;12125;40.102;18.326;2023-01-19T16:03:38;5.47;;;2.13;;
23888;SDS011;12125;40.102;18.326;2023-01-19T16:06:06;5.07;;;2.60;;
23888;SDS011;12125;40.102;18.326;2023-01-19T16:08:33;3.30;;;2.20;;
23888;SDS011;12125;40.102;18.326;2023-01-19T16:11:06;9.35;;;2.75;;
23888;SDS011;12125;40.102;18.326;2023-01-19T16:13:34;5.78;;;3.05;;
23888;SDS011;12125;40.102;18.326;2023-01-19T16:16:04;9.95;;;2.95;;
23888;SDS011;12125;40.102;18.326;2023-01-19T16:18:31;5.07;;;2.75;;
23888;SDS011;12125;40.102;18.326;2023-01-19T16:20:59;5.50;;;2.63;;
23888;SDS011;12125;40.102;18.326;2023-01-19T16:23:25;2.10;;;1.85;;
23888;SDS011;12125;40.102;18.326;2023-01-19T16:25:58;4.90;;;3.03;;
23888;SDS011;12125;40.102;18.326;2023-01-19T16:28:27;5.63;;;3.10;;
23888;SDS011;12125;40.102;18.326;2023-01-19T16:30:56;7.70;;;5.05;;